AirNav   Air Wisconsin Up To $57,000 Bonus
 
 1544 users online  

04NY Klaverack Airport
Hudson, New York, USA

GOING TO HUDSON?


FAA INFORMATION EFFECTIVE 07 NOVEMBER 2019

Location

FAA Identifier: 04NY
Lat/Long: 42-15-44.3130N 073-41-46.4390W
42-15.738550N 073-41.773983W
42.2623092,-73.6962331
(estimated)
Elevation: 250 ft. / 76 m (estimated)
Variation: 14W (1985)
From city: 3 miles N of HUDSON, NY
Time zone: UTC -5 (UTC -4 during Daylight Saving Time)
Zip code: 12534

Airport Operations

Airport use: Private use, PERSONAL USE.
Activation date: 03/1990
Control tower: no
ARTCC: BOSTON CENTER
FSS: BURLINGTON FLIGHT SERVICE STATION
Attendance: UNATNDD
Wind indicator: yes
Segmented circle: yes

Airport Communications

WX AWOS-3 at 1B1 (1.8 nm N): 133.525 (518-828-2577)

Nearby radio navigation aids

VOR radial/distance  VOR name  Freq  Var
ALBr184/29.5ALBANY VORTAC115.3013W
PWLr004/29.9PAWLING VOR/DME114.3012W
CTRr280/33.2CHESTER VOR/DME115.1013W
IGNr021/36.3KINGSTON VOR/DME117.6012W

 
NDB name  Hdg/Dist  Freq  Var  ID
PHILMONT078/1.327213WPFH .--. ..-. ....
GREAT BARRINGTON304/13.839514WGBR --. -... .-.
HUNTER178/37.035614WHEU .... . ..-

Airport Services

Runway Information

Runway 2/20

Dimensions: 5200 x 50 ft. / 1585 x 15 m
Surface: turf
RUNWAY 2  RUNWAY 20
Traffic pattern: rightleft
Displaced threshold: no1700 ft.

Airport Ownership and Management from official FAA records

Ownership: Privately-owned
Owner: ROBERT & LEAH BREW
267 KITTLE ROAD
HUDSON, NY 12534
Phone 518-828-6149
Manager: ROBERT & LEAH BREW
267 KITTLE ROAD
HUDSON, NY 12534
Phone 518-828-6149

Airport Operational Statistics

Aircraft based on the field: 3
Single engine airplanes: 3
    

Additional Remarks

CONSTRUCTION ON ARPT.
FOR CD CTC ALBANY APCH AT 518-862-2299.

Instrument Procedures

There are no published instrument procedures at 04NY.

Some nearby airports with instrument procedures:

1B1 - Columbia County Airport (2 nm N)
KGBR - Walter J Koladza Airport (14 nm E)
4B0 - South Albany Airport (19 nm N)
20N - Kingston-Ulster Airport (20 nm SW)
KPSF - Pittsfield Municipal Airport (21 nm NE)
 
Loc | Ops | Rwys | IFR | FBO | Links
Com | Nav | Svcs | Stats | Notes
Area around 04NY (Klaverack Airport)
 
Road maps at: MapQuest Bing Google
 
Aerial photo
No photo
 
Sectional chart

 
Airport distance calculator
Flying to Klaverack Airport? Find the distance to fly.

From to 04NY

Sunrise and sunset
Times for 22-Nov-2019
 Local
(UTC-5)
 Zulu
(UTC)
Morning civil twilight06:2411:24
Sunrise06:5511:55
Sunset16:2721:27
Evening civil twilight16:5821:58

Current date and time
Zulu (UTC)  22-Nov-2019 15:55:08
Local (UTC-5)  22-Nov-2019 10:55:08
 
METAR
KPSF 
21nm NE 
221454Z AUTO 22008G16KT 10SM FEW060 BKN110 08/02 A2964 RMK AO2 SLP035 T00830017 55027
KALB 
30nm N 
221451Z 19011KT 8SM -RA BKN041 OVC048 08/02 A2965 RMK AO2 RAB49 SLP043 P0000 60000 T00830017 55018
KAQW 
35nm NE 
221452Z AUTO 16003KT 10SM -RA SCT047 BKN060 OVC100 07/02 A2964 RMK AO2 RAB50 SLP042 P0000 60000 T00720017 56026 TSNO
KSCH 
37nm N 
221459Z 33005KT 10SM BKN023 OVC029 06/04 A2965
KPOU 
39nm S 
221453Z 23005KT 10SM FEW070 SCT100 SCT120 09/03 A2972 RMK AO2 SLP061 T00940028 55023
TAF
KPSF 
21nm NE 
221121Z 2212/2312 20007KT P6SM VCSH OVC040 FM221500 23012G21KT P6SM SCT030 OVC040 TEMPO 2216/2219 5SM -SHRA BR OVC030 FM221900 29018G33KT P6SM BKN040 FM230300 29015G25KT P6SM FEW040 FM231000 29010KT P6SM SKC
NOTAMs
Click for the latest NOTAMs
NOTAMs are issued by the DoD/FAA and will open in a separate window not controlled by AirNav.

 

 
 

Would you like to see your business listed on this page?

 If your business provides an interesting product or service to pilots, flight crews, aircraft, or users of the Klaverack Airport, you should consider listing it here.  To start the listing process, click on the button below
 
Add a business
 

Other Pages about Klaverack Airport

Update a link
 
Copyright © AirNav, LLC. All rights reserved. Privacy Policy  Contact